createdAt,value
2022-12-25T00:01:42.833Z,46.77
2022-12-25T00:04:09.947Z,44.63
2022-12-25T00:06:37.408Z,45.50
2022-12-25T00:09:04.847Z,46.17
2022-12-25T00:11:31.926Z,50.70
2022-12-25T00:13:58.967Z,51.13
2022-12-25T00:16:27.675Z,54.97
2022-12-25T00:18:56.963Z,59.20
2022-12-25T00:21:25.200Z,54.10
2022-12-25T00:23:58.184Z,67.67
2022-12-25T00:26:27.392Z,67.33
2022-12-25T00:28:56.869Z,69.43
2022-12-25T00:31:25.640Z,58.97
2022-12-25T00:33:52.931Z,45.83
2022-12-25T00:36:25.037Z,62.20
2022-12-25T00:38:52.158Z,62.57
2022-12-25T00:41:42.714Z,133.17
2022-12-25T00:44:13.771Z,63.33
2022-12-25T00:46:42.633Z,64.77
2022-12-25T00:49:11.885Z,45.20
2022-12-25T00:51:39.168Z,69.33
2022-12-25T00:54:06.407Z,69.70
2022-12-25T00:56:33.874Z,110.70
2022-12-25T00:59:01.081Z,110.87
2022-12-25T01:01:28.260Z,78.93
2022-12-25T01:03:55.965Z,172.67
2022-12-25T01:06:23.076Z,99.33
2022-12-25T01:09:08.706Z,80.77
2022-12-25T01:11:36.092Z,60.67
2022-12-25T01:14:03.793Z,126.03
2022-12-25T01:16:30.946Z,128.70
2022-12-25T01:18:58.190Z,73.73
2022-12-25T01:21:25.604Z,144.93
2022-12-25T01:23:53.725Z,150.93
2022-12-25T01:26:24.608Z,162.47
2022-12-25T01:28:53.088Z,103.63
2022-12-25T01:31:24.411Z,91.83
2022-12-25T01:33:52.210Z,760.27
2022-12-25T01:36:26.032Z,716.53
2022-12-25T01:38:54.273Z,400.23
2022-12-25T01:41:25.165Z,735.27
2022-12-25T01:44:37.901Z,334.90
2022-12-25T01:47:07.356Z,538.33
2022-12-25T01:49:38.940Z,762.17
2022-12-25T01:52:23.852Z,491.37
2022-12-25T01:55:06.150Z,584.87
2022-12-25T01:57:37.407Z,440.87
2022-12-25T02:00:08.588Z,378.03
2022-12-25T02:02:36.816Z,313.03
2022-12-25T02:05:31.822Z,377.37
2022-12-25T02:08:08.601Z,330.07
2022-12-25T02:10:36.120Z,218.13
2022-12-25T02:13:03.739Z,511.33
2022-12-25T02:16:22.696Z,201.83
2022-12-25T02:19:08.908Z,103.93
2022-12-25T02:22:23.064Z,49.40
2022-12-25T02:25:44.216Z,523.03
2022-12-25T02:28:32.448Z,547.20
2022-12-25T02:31:13.114Z,637.10
2022-12-25T02:34:28.145Z,64.53
2022-12-25T02:37:23.104Z,564.93
2022-12-25T02:40:11.799Z,684.50
2022-12-25T02:43:27.143Z,725.17
2022-12-25T02:46:28.022Z,689.20
2022-12-25T02:49:20.204Z,591.60
2022-12-25T02:52:20.794Z,526.67
2022-12-25T02:55:16.410Z,564.00
2022-12-25T02:58:09.696Z,381.37
2022-12-25T03:01:03.300Z,456.83
2022-12-25T03:03:55.454Z,142.73
2022-12-25T03:06:44.890Z,30.53
2022-12-25T03:09:43.100Z,25.03
2022-12-25T03:12:50.594Z,36.90
2022-12-25T03:15:38.355Z,255.10
2022-12-25T03:18:14.414Z,294.20
2022-12-25T03:21:00.600Z,428.83
2022-12-25T03:23:52.561Z,216.57
2022-12-25T03:26:38.664Z,327.57
2022-12-25T03:29:06.029Z,201.53
2022-12-25T03:31:53.515Z,158.80
2022-12-25T03:35:11.810Z,211.97
2022-12-25T03:38:33.990Z,160.10
2022-12-25T03:41:33.062Z,192.40
2022-12-25T03:44:41.201Z,325.23
2022-12-25T03:47:35.243Z,602.97
2022-12-25T03:50:44.492Z,542.73
2022-12-25T03:53:42.806Z,148.70
2022-12-25T03:56:29.691Z,48.27
2022-12-25T03:59:23.093Z,74.67
2022-12-25T04:02:10.826Z,190.47
2022-12-25T04:04:56.778Z,143.63
2022-12-25T04:07:42.707Z,172.40
2022-12-25T04:10:29.451Z,247.40
2022-12-25T04:13:15.106Z,142.07
2022-12-25T04:16:00.877Z,59.70
2022-12-25T04:18:46.616Z,108.47
2022-12-25T04:21:32.286Z,60.83
2022-12-25T04:24:18.164Z,46.67
2022-12-25T04:27:03.860Z,54.27
2022-12-25T04:29:49.567Z,58.20
2022-12-25T04:32:35.302Z,18.33
2022-12-25T04:35:21.021Z,33.10
2022-12-25T04:37:48.059Z,70.37
2022-12-25T04:40:15.344Z,40.07
2022-12-25T04:42:42.505Z,31.97
2022-12-25T04:45:10.896Z,32.83
2022-12-25T04:47:38.151Z,28.97
2022-12-25T04:50:06.150Z,99.97
2022-12-25T04:52:41.737Z,166.43
2022-12-25T04:55:11.659Z,96.03
2022-12-25T04:57:39.068Z,25.77
2022-12-25T05:00:07.788Z,45.43
2022-12-25T05:02:35.232Z,54.60
2022-12-25T05:05:02.505Z,63.67
2022-12-25T05:07:29.654Z,60.50
2022-12-25T05:09:56.802Z,111.93
2022-12-25T05:12:24.114Z,87.00
2022-12-25T05:14:51.180Z,98.27
2022-12-25T05:17:18.279Z,220.83
2022-12-25T05:19:45.747Z,131.50
2022-12-25T05:22:12.892Z,273.70
2022-12-25T05:24:39.916Z,111.07
2022-12-25T05:27:07.117Z,412.90
2022-12-25T05:29:34.203Z,147.27
2022-12-25T05:32:01.586Z,133.73
2022-12-25T05:34:28.693Z,99.53
2022-12-25T05:36:56.618Z,140.03
2022-12-25T05:39:24.231Z,83.83
2022-12-25T05:41:51.488Z,86.73
2022-12-25T05:44:18.531Z,69.07
2022-12-25T05:46:45.775Z,107.73
2022-12-25T05:49:12.942Z,151.47
2022-12-25T05:51:40.127Z,139.57
2022-12-25T05:54:07.207Z,204.77
2022-12-25T05:56:34.374Z,196.83
2022-12-25T05:59:01.462Z,194.33
2022-12-25T06:01:29.478Z,82.23
2022-12-25T06:03:57.630Z,78.03
2022-12-25T06:06:25.329Z,41.80
2022-12-25T06:08:55.196Z,74.90
2022-12-25T06:11:22.768Z,62.97
2022-12-25T06:13:53.669Z,52.53
2022-12-25T06:16:21.465Z,37.37
2022-12-25T06:18:52.272Z,68.83
2022-12-25T06:21:19.570Z,93.20
2022-12-25T06:23:46.851Z,60.37
2022-12-25T06:26:19.766Z,42.63
2022-12-25T06:28:47.450Z,44.80
2022-12-25T06:31:20.240Z,99.57
2022-12-25T06:33:48.162Z,101.70
2022-12-25T06:36:23.689Z,85.10
2022-12-25T06:38:51.889Z,49.73
2022-12-25T06:41:26.013Z,23.83
2022-12-25T06:44:00.811Z,58.00
2022-12-25T06:46:30.691Z,36.47
2022-12-25T06:49:00.635Z,52.40
2022-12-25T06:51:32.110Z,47.60
2022-12-25T06:54:03.700Z,52.40
2022-12-25T06:56:33.383Z,60.23
2022-12-25T06:59:09.754Z,57.20
2022-12-25T07:01:56.311Z,40.80
2022-12-25T07:04:40.201Z,60.03
2022-12-25T07:07:09.794Z,34.60
2022-12-25T07:09:38.861Z,101.27
2022-12-25T07:12:23.718Z,26.33
2022-12-25T07:14:55.066Z,27.33
2022-12-25T07:17:24.086Z,33.97
2022-12-25T07:19:51.252Z,35.10
2022-12-25T07:22:18.495Z,39.20
2022-12-25T07:24:45.648Z,57.70
2022-12-25T07:27:13.238Z,20.10
2022-12-25T07:29:40.315Z,29.00
2022-12-25T07:32:07.477Z,44.07
2022-12-25T07:34:34.564Z,39.27
2022-12-25T07:37:01.798Z,21.80
2022-12-25T07:39:28.976Z,40.87
2022-12-25T07:41:56.087Z,141.53
2022-12-25T07:44:23.164Z,72.53
2022-12-25T07:46:50.304Z,31.83
2022-12-25T07:49:17.413Z,19.63
2022-12-25T07:51:44.595Z,18.70
2022-12-25T07:54:11.795Z,54.97
2022-12-25T07:56:38.898Z,103.73
2022-12-25T07:59:05.956Z,45.87
2022-12-25T08:01:33.184Z,99.13
2022-12-25T08:04:02.718Z,66.17
2022-12-25T08:06:34.298Z,280.17
2022-12-25T08:09:12.683Z,53.40
2022-12-25T08:11:45.397Z,110.00
2022-12-25T08:14:13.116Z,94.20
2022-12-25T08:16:41.592Z,97.37
2022-12-25T08:19:10.256Z,146.70
2022-12-25T08:21:38.450Z,51.40
2022-12-25T08:24:05.976Z,49.70
2022-12-25T08:26:33.475Z,81.23
2022-12-25T08:29:00.645Z,53.27
2022-12-25T08:31:30.541Z,92.40
2022-12-25T08:34:01.793Z,33.47
2022-12-25T08:36:29.565Z,48.33
2022-12-25T08:39:02.643Z,58.57
2022-12-25T08:41:32.370Z,62.33
2022-12-25T08:43:59.557Z,68.77
2022-12-25T08:46:26.736Z,54.90
2022-12-25T08:48:54.317Z,59.20
2022-12-25T08:51:25.121Z,80.30
2022-12-25T08:53:59.140Z,89.53
2022-12-25T08:56:27.074Z,45.57
2022-12-25T08:58:54.740Z,46.77
2022-12-25T09:01:21.975Z,59.37
2022-12-25T09:03:49.284Z,48.13
2022-12-25T09:06:17.415Z,58.17
2022-12-25T09:08:49.180Z,43.23
2022-12-25T09:11:19.655Z,66.70
2022-12-25T09:13:48.570Z,43.43
2022-12-25T09:16:21.099Z,44.77
2022-12-25T09:18:48.639Z,45.70
2022-12-25T09:21:17.848Z,134.33
2022-12-25T09:23:45.637Z,49.13
2022-12-25T09:26:17.474Z,34.47
2022-12-25T09:28:51.225Z,29.47
2022-12-25T09:31:21.247Z,50.23
2022-12-25T09:33:49.284Z,48.93
2022-12-25T09:36:16.727Z,39.70
2022-12-25T09:38:43.980Z,51.50
2022-12-25T09:41:29.160Z,30.63
2022-12-25T09:44:16.662Z,55.50
2022-12-25T09:47:13.803Z,52.83
2022-12-25T09:50:37.993Z,80.73
2022-12-25T09:53:27.321Z,213.13
2022-12-25T09:56:33.359Z,172.70
2022-12-25T09:59:00.566Z,47.90
2022-12-25T10:01:59.965Z,103.10
2022-12-25T10:05:30.528Z,199.67
2022-12-25T10:08:26.600Z,154.73
2022-12-25T10:11:21.283Z,149.90
2022-12-25T10:14:08.571Z,40.83
2022-12-25T10:17:15.041Z,77.40
2022-12-25T10:20:00.970Z,38.70
2022-12-25T10:22:42.742Z,53.13
2022-12-25T10:25:22.221Z,135.37
2022-12-25T10:28:09.892Z,53.33
2022-12-25T10:30:37.564Z,78.10
2022-12-25T10:33:05.070Z,46.07
2022-12-25T10:35:33.076Z,122.03
2022-12-25T10:38:22.565Z,129.87
2022-12-25T10:41:39.955Z,84.33
2022-12-25T10:44:21.058Z,113.67
2022-12-25T10:46:51.680Z,72.07
2022-12-25T10:49:24.476Z,97.30
2022-12-25T10:51:52.163Z,103.30
2022-12-25T10:54:35.963Z,77.87
2022-12-25T10:57:16.188Z,200.33
2022-12-25T10:59:51.536Z,93.27
2022-12-25T11:02:36.497Z,166.37
2022-12-25T11:05:32.087Z,92.90
2022-12-25T11:08:03.121Z,85.00
2022-12-25T11:10:44.501Z,60.57
2022-12-25T11:13:30.664Z,89.30
2022-12-25T11:16:38.106Z,58.30
2022-12-25T11:19:29.667Z,76.63
2022-12-25T11:22:01.448Z,138.73
2022-12-25T11:24:33.291Z,73.13
2022-12-25T11:27:09.077Z,31.97
2022-12-25T11:29:51.748Z,40.07
2022-12-25T11:32:37.603Z,66.37
2022-12-25T11:35:18.530Z,31.27
2022-12-25T11:37:52.630Z,23.37
2022-12-25T11:40:49.940Z,37.27
2022-12-25T11:43:46.720Z,29.73
2022-12-25T11:46:45.919Z,31.63
2022-12-25T11:49:19.536Z,29.70
2022-12-25T11:51:51.926Z,21.33
2022-12-25T11:54:41.893Z,21.87
2022-12-25T11:57:11.641Z,18.90
2022-12-25T11:59:56.428Z,19.27
2022-12-25T12:02:36.318Z,17.50
2022-12-25T12:05:46.229Z,29.77
2022-12-25T12:08:14.356Z,32.20
2022-12-25T12:11:15.946Z,27.47
2022-12-25T12:14:20.293Z,25.97
2022-12-25T12:16:47.428Z,33.13
2022-12-25T12:19:31.619Z,45.83
2022-12-25T12:22:04.819Z,23.73
2022-12-25T12:24:42.658Z,28.27
2022-12-25T12:27:39.210Z,25.20
2022-12-25T12:30:23.242Z,44.20
2022-12-25T12:32:58.616Z,31.07
2022-12-25T12:35:36.512Z,30.47
2022-12-25T12:38:15.499Z,39.27
2022-12-25T12:41:07.150Z,74.83
2022-12-25T12:44:05.119Z,39.37
2022-12-25T12:46:56.924Z,49.10
2022-12-25T12:49:27.830Z,79.93
2022-12-25T12:52:42.008Z,36.83
2022-12-25T12:55:15.032Z,57.80
2022-12-25T12:57:42.830Z,80.70
2022-12-25T13:00:22.953Z,34.03
2022-12-25T13:03:32.550Z,36.37
2022-12-25T13:06:29.947Z,40.47
2022-12-25T13:09:52.945Z,43.27
2022-12-25T13:12:22.196Z,34.43
2022-12-25T13:14:50.040Z,49.93
2022-12-25T13:17:24.802Z,28.90
2022-12-25T13:20:24.676Z,32.33
2022-12-25T13:22:53.143Z,41.60
2022-12-25T13:25:24.730Z,27.93
2022-12-25T13:27:57.734Z,40.03
2022-12-25T13:30:25.968Z,63.07
2022-12-25T13:32:53.470Z,60.23
2022-12-25T13:35:22.806Z,61.33
2022-12-25T13:37:50.109Z,61.83
2022-12-25T13:40:27.462Z,49.87
2022-12-25T13:43:01.771Z,46.83
2022-12-25T13:45:31.532Z,42.27
2022-12-25T13:48:20.824Z,39.47
2022-12-25T13:50:59.086Z,70.03
2022-12-25T13:53:27.640Z,44.80
2022-12-25T13:55:57.387Z,33.80
2022-12-25T13:58:34.961Z,54.13
2022-12-25T14:01:03.823Z,31.43
2022-12-25T14:03:42.887Z,32.37
2022-12-25T14:06:30.982Z,40.13
2022-12-25T14:08:59.585Z,42.40
2022-12-25T14:11:29.845Z,41.17
2022-12-25T14:14:14.907Z,41.63
2022-12-25T14:16:44.802Z,48.23
2022-12-25T14:19:32.985Z,56.20
2022-12-25T14:22:22.625Z,564.83
2022-12-25T14:24:49.757Z,63.87
2022-12-25T14:27:28.881Z,46.97
2022-12-25T14:29:59.523Z,39.93
2022-12-25T14:32:38.694Z,66.90
2022-12-25T14:35:06.583Z,39.50
2022-12-25T14:37:34.247Z,60.10
2022-12-25T14:40:45.429Z,51.90
2022-12-25T14:43:26.591Z,48.50
2022-12-25T14:46:08.073Z,46.50
2022-12-25T14:48:35.303Z,45.60
2022-12-25T14:51:17.280Z,63.67
2022-12-25T14:53:55.355Z,39.27
2022-12-25T14:56:26.177Z,36.27
2022-12-25T14:58:58.044Z,59.27
2022-12-25T15:01:41.709Z,54.70
2022-12-25T15:04:11.925Z,95.13
2022-12-25T15:07:11.297Z,32.83
2022-12-25T15:09:40.153Z,48.07
2022-12-25T15:12:08.431Z,40.47
2022-12-25T15:14:38.359Z,50.07
2022-12-25T15:17:05.694Z,38.97
2022-12-25T15:19:38.798Z,48.10
2022-12-25T15:22:06.432Z,43.73
2022-12-25T15:24:33.684Z,41.03
2022-12-25T15:27:01.094Z,36.77
2022-12-25T15:32:24.277Z,39.13
2022-12-25T15:34:51.455Z,47.40
2022-12-25T15:37:19.535Z,41.73
2022-12-25T15:39:47.067Z,38.23
2022-12-25T15:42:21.536Z,44.23
2022-12-25T15:44:48.905Z,50.97
2022-12-25T15:47:20.238Z,32.90
2022-12-25T15:49:47.620Z,55.07
2022-12-25T15:52:17.127Z,48.07
2022-12-25T15:54:44.571Z,44.70
2022-12-25T15:57:21.909Z,29.70
2022-12-25T15:59:49.006Z,38.87
2022-12-25T16:02:20.720Z,39.67
2022-12-25T16:04:48.908Z,45.27
2022-12-25T16:07:20.918Z,38.20
2022-12-25T16:09:48.120Z,37.70
2022-12-25T16:12:15.421Z,45.37
2022-12-25T16:14:42.538Z,46.07
2022-12-25T16:17:15.422Z,44.67
2022-12-25T16:19:45.213Z,43.80
2022-12-25T16:22:18.458Z,37.17
2022-12-25T16:24:45.525Z,36.43
2022-12-25T16:27:12.629Z,40.73
2022-12-25T16:29:39.679Z,41.53
2022-12-25T16:32:06.750Z,37.97
2022-12-25T16:34:33.902Z,27.33
2022-12-25T16:37:00.958Z,60.47
2022-12-25T16:39:28.475Z,46.37
2022-12-25T16:41:55.564Z,60.97
2022-12-25T16:44:22.708Z,50.23
2022-12-25T16:46:49.778Z,43.50
2022-12-25T16:49:19.738Z,51.20
2022-12-25T16:51:46.823Z,40.90
2022-12-25T16:54:14.395Z,38.73
2022-12-25T16:56:41.522Z,45.53
2022-12-25T16:59:08.991Z,41.63
2022-12-25T17:01:37.914Z,33.83
2022-12-25T17:04:05.321Z,37.87
2022-12-25T17:06:32.707Z,35.70
2022-12-25T17:09:02.402Z,53.63
2022-12-25T17:11:30.866Z,30.17
2022-12-25T17:14:02.582Z,49.77
2022-12-25T17:16:36.406Z,35.00
2022-12-25T17:19:17.834Z,42.43
2022-12-25T17:21:44.943Z,42.50
2022-12-25T17:24:12.313Z,45.20
2022-12-25T17:26:41.418Z,35.23
2022-12-25T17:29:09.225Z,42.00
2022-12-25T17:31:37.765Z,43.67
2022-12-25T17:34:06.312Z,37.43
2022-12-25T17:36:33.600Z,51.10
2022-12-25T17:39:03.527Z,62.93
2022-12-25T17:41:30.985Z,50.87
2022-12-25T17:43:58.286Z,47.10
2022-12-25T17:46:29.714Z,45.57
2022-12-25T17:49:00.983Z,40.03
2022-12-25T17:51:30.909Z,49.53
2022-12-25T17:54:03.197Z,37.57
2022-12-25T17:56:31.864Z,41.23
2022-12-25T17:59:06.477Z,55.50
2022-12-25T18:01:35.296Z,37.50
2022-12-25T18:04:03.241Z,53.43
2022-12-25T18:06:30.416Z,62.07
2022-12-25T18:08:58.710Z,83.70
2022-12-25T18:11:32.648Z,66.83
2022-12-25T18:17:40.173Z,36.83
2022-12-25T18:20:08.736Z,43.50
2022-12-25T18:22:36.314Z,43.03
2022-12-25T18:25:04.145Z,52.50
2022-12-25T18:27:31.271Z,41.23
2022-12-25T18:29:58.412Z,45.73
2022-12-25T18:32:28.227Z,55.00
2022-12-25T18:34:56.098Z,43.73
2022-12-25T18:37:23.243Z,89.70
2022-12-25T18:39:50.366Z,78.40
2022-12-25T18:42:36.121Z,46.63
2022-12-25T18:45:03.608Z,52.63
2022-12-25T18:47:30.740Z,50.80
2022-12-25T18:49:57.952Z,45.00
2022-12-25T18:52:50.372Z,44.60
2022-12-25T18:55:12.291Z,45.07
2022-12-25T18:57:40.861Z,58.00
2022-12-25T19:00:09.388Z,45.07
2022-12-25T19:02:36.610Z,52.73
2022-12-25T19:05:05.789Z,41.30
2022-12-25T19:07:33.041Z,34.37
2022-12-25T19:10:00.135Z,41.37
2022-12-25T19:12:27.226Z,49.43
2022-12-25T19:14:54.289Z,44.00
2022-12-25T19:17:24.329Z,49.90
2022-12-25T19:19:53.754Z,50.30
2022-12-25T19:22:20.827Z,50.20
2022-12-25T19:24:47.941Z,55.53
2022-12-25T19:27:15.035Z,44.00
2022-12-25T19:29:42.107Z,39.13
2022-12-25T19:32:09.286Z,44.63
2022-12-25T19:34:36.635Z,38.67
2022-12-25T19:37:04.262Z,32.87
2022-12-25T19:39:31.380Z,36.07
2022-12-25T19:41:58.525Z,44.33
2022-12-25T19:44:25.772Z,38.20
2022-12-25T19:46:53.459Z,43.73
2022-12-25T19:49:20.614Z,39.63
2022-12-25T19:51:48.656Z,37.03
2022-12-25T19:54:19.240Z,38.50
2022-12-25T19:56:48.704Z,38.70
2022-12-25T19:59:16.125Z,31.40
2022-12-25T20:01:43.666Z,37.00
2022-12-25T20:04:11.490Z,39.27
2022-12-25T20:06:40.685Z,36.70
2022-12-25T20:09:15.338Z,36.67
2022-12-25T20:11:43.531Z,36.20
2022-12-25T20:14:16.451Z,40.13
2022-12-25T20:16:49.660Z,35.67
2022-12-25T20:19:16.788Z,37.60
2022-12-25T20:21:43.860Z,40.13
2022-12-25T20:24:11.360Z,38.03
2022-12-25T20:26:42.869Z,38.20
2022-12-25T20:29:11.534Z,30.77
2022-12-25T20:31:38.585Z,35.57
2022-12-25T20:34:10.945Z,34.00
2022-12-25T20:36:38.466Z,35.63
2022-12-25T20:39:11.858Z,30.20
2022-12-25T20:41:39.758Z,29.30
2022-12-25T20:44:09.887Z,29.47
2022-12-25T20:46:37.537Z,21.80
2022-12-25T20:49:04.996Z,26.43
2022-12-25T20:51:32.689Z,36.60
2022-12-25T20:53:59.712Z,36.00
2022-12-25T20:56:27.488Z,30.10
2022-12-25T20:58:58.445Z,27.23
2022-12-25T21:01:28.336Z,30.60
2022-12-25T21:03:56.937Z,25.07
2022-12-25T21:06:24.780Z,33.13
2022-12-25T21:08:51.934Z,27.17
2022-12-25T21:11:21.171Z,27.57
2022-12-25T21:13:49.044Z,30.33
2022-12-25T21:16:22.119Z,26.00
2022-12-25T21:18:54.163Z,26.63
2022-12-25T21:21:22.170Z,33.10
2022-12-25T21:23:49.580Z,29.10
2022-12-25T21:26:21.720Z,30.07
2022-12-25T21:28:52.551Z,28.23
2022-12-25T21:31:20.928Z,27.87
2022-12-25T21:33:54.951Z,34.03
2022-12-25T21:36:33.560Z,28.33
2022-12-25T21:39:06.288Z,34.03
2022-12-25T21:41:37.064Z,29.83
2022-12-25T21:44:05.148Z,37.10
2022-12-25T21:46:32.406Z,34.97
2022-12-25T21:49:00.125Z,34.10
2022-12-25T21:51:50.948Z,34.20
2022-12-25T21:54:21.699Z,30.53
2022-12-25T21:56:50.627Z,34.37
2022-12-25T21:59:21.586Z,30.00
2022-12-25T22:01:51.230Z,35.23
2022-12-25T22:04:22.390Z,33.73
2022-12-25T22:07:08.376Z,30.63
2022-12-25T22:09:35.712Z,31.57
2022-12-25T22:12:22.349Z,28.57
2022-12-25T22:14:55.221Z,29.67
2022-12-25T22:17:50.812Z,31.60
2022-12-25T22:20:34.549Z,28.00
2022-12-25T22:23:02.540Z,28.30
2022-12-25T22:25:30.064Z,30.37
2022-12-25T22:27:57.995Z,27.47
2022-12-25T22:30:28.482Z,30.47
2022-12-25T22:32:56.223Z,29.10
2022-12-25T22:35:24.366Z,27.50
2022-12-25T22:37:51.472Z,30.57
2022-12-25T22:40:20.713Z,28.17
2022-12-25T22:42:48.333Z,26.87
2022-12-25T22:45:15.633Z,23.47
2022-12-25T22:47:42.945Z,24.07
2022-12-25T22:50:12.172Z,23.33
2022-12-25T22:52:39.422Z,27.93
2022-12-25T22:55:08.860Z,26.03
2022-12-25T22:57:36.177Z,25.23
2022-12-25T23:00:06.334Z,21.40
2022-12-25T23:02:35.059Z,21.90
2022-12-25T23:05:03.277Z,21.97
2022-12-25T23:07:30.321Z,19.77
2022-12-25T23:09:57.360Z,24.80
2022-12-25T23:12:42.969Z,22.20
2022-12-25T23:15:10.948Z,21.63
2022-12-25T23:17:56.790Z,17.83
2022-12-25T23:20:42.287Z,25.00
2022-12-25T23:23:34.921Z,23.33
2022-12-25T23:26:09.303Z,21.73
2022-12-25T23:29:01.165Z,24.73
2022-12-25T23:31:41.134Z,27.77
2022-12-25T23:34:09.809Z,22.27
2022-12-25T23:36:37.052Z,22.90
2022-12-25T23:39:09.745Z,19.77
2022-12-25T23:41:43.606Z,16.93
2022-12-25T23:44:12.834Z,23.03
2022-12-25T23:46:42.065Z,20.33
2022-12-25T23:49:22.863Z,20.83
2022-12-25T23:51:50.009Z,17.87
2022-12-25T23:54:26.794Z,17.57
2022-12-25T23:56:57.160Z,18.83
2022-12-25T23:59:27.479Z,15.67
